sensor_id;sensor_type;location;lat;lon;timestamp;pressure;altitude;pressure_sealevel;temperature;humidity
76990;BME280;65924;47.250;11.332;2023-05-20T00:00:20;94891.56;;;14.70;69.46
76990;BME280;65924;47.250;11.332;2023-05-20T00:00:58;94888.09;;;14.69;69.24
76990;BME280;65924;47.250;11.332;2023-05-20T00:01:37;94889.61;;;14.67;69.14
76990;BME280;65924;47.250;11.332;2023-05-20T00:02:16;94888.25;;;14.65;69.01
76990;BME280;65924;47.250;11.332;2023-05-20T00:02:54;94889.61;;;14.63;69.42
76990;BME280;65924;47.250;11.332;2023-05-20T00:03:33;94889.91;;;14.63;69.83
76990;BME280;65924;47.250;11.332;2023-05-20T00:04:11;94892.34;;;14.63;70.07
76990;BME280;65924;47.250;11.332;2023-05-20T00:04:50;94894.04;;;14.63;70.36
76990;BME280;65924;47.250;11.332;2023-05-20T00:05:28;94891.89;;;14.62;70.73
76990;BME280;65924;47.250;11.332;2023-05-20T00:06:07;94891.33;;;14.63;70.74
76990;BME280;65924;47.250;11.332;2023-05-20T00:06:45;94890.27;;;14.61;69.47
76990;BME280;65924;47.250;11.332;2023-05-20T00:07:24;94886.35;;;14.58;69.35
76990;BME280;65924;47.250;11.332;2023-05-20T00:08:03;94888.48;;;14.57;69.93
76990;BME280;65924;47.250;11.332;2023-05-20T00:08:45;94885.55;;;14.57;69.93
76990;BME280;65924;47.250;11.332;2023-05-20T00:09:23;94886.59;;;14.57;70.08
76990;BME280;65924;47.250;11.332;2023-05-20T00:10:02;94887.30;;;14.57;70.21
76990;BME280;65924;47.250;11.332;2023-05-20T00:10:40;94886.98;;;14.56;71.57
76990;BME280;65924;47.250;11.332;2023-05-20T00:11:19;94883.70;;;14.57;71.09
76990;BME280;65924;47.250;11.332;2023-05-20T00:11:58;94879.25;;;14.54;70.36
76990;BME280;65924;47.250;11.332;2023-05-20T00:12:37;94885.48;;;14.56;69.51
76990;BME280;65924;47.250;11.332;2023-05-20T00:13:16;94882.34;;;14.52;68.86
76990;BME280;65924;47.250;11.332;2023-05-20T00:13:55;94882.17;;;14.50;69.87
76990;BME280;65924;47.250;11.332;2023-05-20T00:14:33;94878.98;;;14.50;70.33
76990;BME280;65924;47.250;11.332;2023-05-20T00:15:12;94879.97;;;14.50;70.80
76990;BME280;65924;47.250;11.332;2023-05-20T00:15:51;94881.34;;;14.50;71.03
76990;BME280;65924;47.250;11.332;2023-05-20T00:16:30;94877.89;;;14.50;71.03
76990;BME280;65924;47.250;11.332;2023-05-20T00:17:09;94874.25;;;14.51;71.08
76990;BME280;65924;47.250;11.332;2023-05-20T00:17:47;94870.64;;;14.49;70.71
76990;BME280;65924;47.250;11.332;2023-05-20T00:18:26;94871.67;;;14.51;70.18
76990;BME280;65924;47.250;11.332;2023-05-20T00:19:04;94872.86;;;14.51;69.64
76990;BME280;65924;47.250;11.332;2023-05-20T00:19:43;94867.91;;;14.51;69.66
76990;BME280;65924;47.250;11.332;2023-05-20T00:20:21;94871.24;;;14.50;70.45
76990;BME280;65924;47.250;11.332;2023-05-20T00:21:00;94873.02;;;14.49;69.77
76990;BME280;65924;47.250;11.332;2023-05-20T00:21:38;94870.70;;;14.46;69.24
76990;BME280;65924;47.250;11.332;2023-05-20T00:22:17;94874.00;;;14.42;68.82
76990;BME280;65924;47.250;11.332;2023-05-20T00:22:55;94866.75;;;14.37;68.60
76990;BME280;65924;47.250;11.332;2023-05-20T00:23:34;94868.83;;;14.34;68.69
76990;BME280;65924;47.250;11.332;2023-05-20T00:24:12;94864.98;;;14.31;69.71
76990;BME280;65924;47.250;11.332;2023-05-20T00:24:51;94870.38;;;14.30;70.50
76990;BME280;65924;47.250;11.332;2023-05-20T00:25:30;94873.20;;;14.29;69.50
76990;BME280;65924;47.250;11.332;2023-05-20T00:26:09;94872.02;;;14.24;68.82
76990;BME280;65924;47.250;11.332;2023-05-20T00:26:48;94875.52;;;14.21;69.17
76990;BME280;65924;47.250;11.332;2023-05-20T00:27:27;94872.70;;;14.18;68.74
76990;BME280;65924;47.250;11.332;2023-05-20T00:28:05;94871.26;;;14.14;68.95
76990;BME280;65924;47.250;11.332;2023-05-20T00:28:44;94868.93;;;14.14;70.26
76990;BME280;65924;47.250;11.332;2023-05-20T00:29:22;94868.48;;;14.13;70.28
76990;BME280;65924;47.250;11.332;2023-05-20T00:30:01;94867.80;;;14.13;70.06
76990;BME280;65924;47.250;11.332;2023-05-20T00:30:40;94865.48;;;14.12;70.28
76990;BME280;65924;47.250;11.332;2023-05-20T00:31:19;94866.39;;;14.11;70.05
76990;BME280;65924;47.250;11.332;2023-05-20T00:31:58;94867.90;;;14.11;70.28
76990;BME280;65924;47.250;11.332;2023-05-20T00:32:37;94867.06;;;14.11;69.79
76990;BME280;65924;47.250;11.332;2023-05-20T00:33:16;94862.67;;;14.10;69.62
76990;BME280;65924;47.250;11.332;2023-05-20T00:33:55;94861.52;;;14.10;69.35
76990;BME280;65924;47.250;11.332;2023-05-20T00:34:33;94859.22;;;14.09;69.32
76990;BME280;65924;47.250;11.332;2023-05-20T00:35:12;94860.20;;;14.07;69.71
76990;BME280;65924;47.250;11.332;2023-05-20T00:35:51;94855.65;;;14.06;70.10
76990;BME280;65924;47.250;11.332;2023-05-20T00:36:30;94856.91;;;14.05;70.45
76990;BME280;65924;47.250;11.332;2023-05-20T00:37:09;94857.20;;;14.05;70.60
76990;BME280;65924;47.250;11.332;2023-05-20T00:37:48;94857.58;;;14.05;70.47
76990;BME280;65924;47.250;11.332;2023-05-20T00:38:26;94856.70;;;14.06;70.75
76990;BME280;65924;47.250;11.332;2023-05-20T00:39:05;94853.95;;;14.06;70.74
76990;BME280;65924;47.250;11.332;2023-05-20T00:39:43;94852.43;;;14.05;70.75
76990;BME280;65924;47.250;11.332;2023-05-20T00:40:22;94849.66;;;14.06;70.91
76990;BME280;65924;47.250;11.332;2023-05-20T00:41:02;94849.27;;;14.07;71.36
76990;BME280;65924;47.250;11.332;2023-05-20T00:41:40;94845.98;;;14.08;71.63
76990;BME280;65924;47.250;11.332;2023-05-20T00:42:24;94841.80;;;14.09;71.91
76990;BME280;65924;47.250;11.332;2023-05-20T00:43:03;94839.65;;;14.10;72.49
76990;BME280;65924;47.250;11.332;2023-05-20T00:43:41;94833.62;;;14.11;72.19
76990;BME280;65924;47.250;11.332;2023-05-20T00:44:20;94830.45;;;14.12;71.74
76990;BME280;65924;47.250;11.332;2023-05-20T00:45:01;94830.56;;;14.12;70.47
76990;BME280;65924;47.250;11.332;2023-05-20T00:45:40;94829.45;;;14.13;70.00
76990;BME280;65924;47.250;11.332;2023-05-20T00:46:18;94834.39;;;14.14;70.02
76990;BME280;65924;47.250;11.332;2023-05-20T00:46:57;94828.88;;;14.14;70.45
76990;BME280;65924;47.250;11.332;2023-05-20T00:47:35;94832.56;;;14.15;70.10
76990;BME280;65924;47.250;11.332;2023-05-20T00:48:14;94834.64;;;14.15;69.57
76990;BME280;65924;47.250;11.332;2023-05-20T00:48:53;94834.40;;;14.16;69.49
76990;BME280;65924;47.250;11.332;2023-05-20T00:49:31;94837.13;;;14.16;69.91
76990;BME280;65924;47.250;11.332;2023-05-20T00:50:10;94838.63;;;14.16;69.92
76990;BME280;65924;47.250;11.332;2023-05-20T00:50:50;94838.67;;;14.16;70.22
76990;BME280;65924;47.250;11.332;2023-05-20T00:51:29;94842.01;;;14.17;69.33
76990;BME280;65924;47.250;11.332;2023-05-20T00:52:10;94841.69;;;14.16;69.25
76990;BME280;65924;47.250;11.332;2023-05-20T00:52:48;94841.17;;;14.14;69.75
76990;BME280;65924;47.250;11.332;2023-05-20T00:53:28;94843.23;;;14.16;70.74
76990;BME280;65924;47.250;11.332;2023-05-20T00:54:07;94849.77;;;14.16;70.18
76990;BME280;65924;47.250;11.332;2023-05-20T00:54:46;94848.85;;;14.14;69.34
76990;BME280;65924;47.250;11.332;2023-05-20T00:55:25;94848.06;;;14.12;69.53
76990;BME280;65924;47.250;11.332;2023-05-20T00:56:04;94852.14;;;14.10;69.49
76990;BME280;65924;47.250;11.332;2023-05-20T00:56:43;94852.48;;;14.07;69.70
76990;BME280;65924;47.250;11.332;2023-05-20T00:57:21;94851.29;;;14.07;70.18
76990;BME280;65924;47.250;11.332;2023-05-20T00:58:00;94856.55;;;14.08;70.59
76990;BME280;65924;47.250;11.332;2023-05-20T00:58:39;94853.33;;;14.08;71.06
76990;BME280;65924;47.250;11.332;2023-05-20T00:59:18;94853.90;;;14.09;71.93
76990;BME280;65924;47.250;11.332;2023-05-20T00:59:56;94852.81;;;14.10;72.20
76990;BME280;65924;47.250;11.332;2023-05-20T01:00:37;94854.14;;;14.10;72.62
76990;BME280;65924;47.250;11.332;2023-05-20T01:01:16;94855.27;;;14.11;71.79
76990;BME280;65924;47.250;11.332;2023-05-20T01:01:55;94854.06;;;14.11;71.10
76990;BME280;65924;47.250;11.332;2023-05-20T01:02:34;94859.92;;;14.13;71.33
76990;BME280;65924;47.250;11.332;2023-05-20T01:03:13;94859.73;;;14.13;71.78
76990;BME280;65924;47.250;11.332;2023-05-20T01:03:51;94861.12;;;14.13;70.88
76990;BME280;65924;47.250;11.332;2023-05-20T01:04:31;94860.27;;;14.13;70.41
76990;BME280;65924;47.250;11.332;2023-05-20T01:05:10;94860.14;;;14.12;70.24
76990;BME280;65924;47.250;11.332;2023-05-20T01:05:48;94857.61;;;14.12;70.53
76990;BME280;65924;47.250;11.332;2023-05-20T01:06:27;94858.79;;;14.12;70.99
76990;BME280;65924;47.250;11.332;2023-05-20T01:07:06;94856.36;;;14.12;71.39
76990;BME280;65924;47.250;11.332;2023-05-20T01:07:45;94853.27;;;14.13;71.24
76990;BME280;65924;47.250;11.332;2023-05-20T01:08:24;94856.33;;;14.13;70.54
76990;BME280;65924;47.250;11.332;2023-05-20T01:09:03;94853.08;;;14.13;70.85
76990;BME280;65924;47.250;11.332;2023-05-20T01:09:42;94854.15;;;14.12;70.78
76990;BME280;65924;47.250;11.332;2023-05-20T01:10:23;94852.50;;;14.12;71.42
76990;BME280;65924;47.250;11.332;2023-05-20T01:11:10;94850.98;;;14.11;70.92
76990;BME280;65924;47.250;11.332;2023-05-20T01:11:58;94849.10;;;14.09;69.70
76990;BME280;65924;47.250;11.332;2023-05-20T01:12:47;94849.05;;;14.05;70.18
76990;BME280;65924;47.250;11.332;2023-05-20T01:13:28;94846.83;;;14.03;70.48
76990;BME280;65924;47.250;11.332;2023-05-20T01:14:12;94845.63;;;14.00;69.88
76990;BME280;65924;47.250;11.332;2023-05-20T01:15:09;94844.59;;;13.99;70.16
76990;BME280;65924;47.250;11.332;2023-05-20T01:15:49;94845.17;;;13.98;70.20
76990;BME280;65924;47.250;11.332;2023-05-20T01:16:31;94846.58;;;13.97;70.42
76990;BME280;65924;47.250;11.332;2023-05-20T01:17:12;94849.39;;;13.96;70.90
76990;BME280;65924;47.250;11.332;2023-05-20T01:17:57;94846.52;;;13.96;71.37
76990;BME280;65924;47.250;11.332;2023-05-20T01:18:40;94850.99;;;13.95;71.38
76990;BME280;65924;47.250;11.332;2023-05-20T01:19:41;94848.48;;;13.95;71.02
76990;BME280;65924;47.250;11.332;2023-05-20T01:20:23;94851.91;;;13.92;70.26
76990;BME280;65924;47.250;11.332;2023-05-20T01:21:05;94848.49;;;13.90;70.31
76990;BME280;65924;47.250;11.332;2023-05-20T01:21:45;94851.30;;;13.89;69.68
76990;BME280;65924;47.250;11.332;2023-05-20T01:22:25;94847.88;;;13.87;69.54
76990;BME280;65924;47.250;11.332;2023-05-20T01:23:04;94849.27;;;13.86;70.28
76990;BME280;65924;47.250;11.332;2023-05-20T01:23:43;94852.44;;;13.85;70.39
76990;BME280;65924;47.250;11.332;2023-05-20T01:24:21;94852.65;;;13.85;70.06
76990;BME280;65924;47.250;11.332;2023-05-20T01:25:00;94857.43;;;13.83;70.22
76990;BME280;65924;47.250;11.332;2023-05-20T01:25:40;94859.96;;;13.81;70.64
76990;BME280;65924;47.250;11.332;2023-05-20T01:26:19;94856.11;;;13.77;69.86
76990;BME280;65924;47.250;11.332;2023-05-20T01:26:59;94857.21;;;13.77;70.43
76990;BME280;65924;47.250;11.332;2023-05-20T01:27:37;94859.85;;;13.76;71.05
76990;BME280;65924;47.250;11.332;2023-05-20T01:28:18;94857.63;;;13.76;70.75
76990;BME280;65924;47.250;11.332;2023-05-20T01:28:57;94855.36;;;13.76;70.78
76990;BME280;65924;47.250;11.332;2023-05-20T01:29:42;94857.40;;;13.76;70.73
76990;BME280;65924;47.250;11.332;2023-05-20T01:30:22;94856.56;;;13.76;71.26
76990;BME280;65924;47.250;11.332;2023-05-20T01:31:06;94858.64;;;13.76;70.19
76990;BME280;65924;47.250;11.332;2023-05-20T01:31:52;94861.95;;;13.75;69.83
76990;BME280;65924;47.250;11.332;2023-05-20T01:32:36;94859.95;;;13.72;69.45
76990;BME280;65924;47.250;11.332;2023-05-20T01:33:19;94862.13;;;13.70;69.55
76990;BME280;65924;47.250;11.332;2023-05-20T01:33:59;94857.13;;;13.68;70.12
76990;BME280;65924;47.250;11.332;2023-05-20T01:34:41;94860.56;;;13.68;69.70
76990;BME280;65924;47.250;11.332;2023-05-20T01:35:21;94856.94;;;13.66;70.67
76990;BME280;65924;47.250;11.332;2023-05-20T01:36:02;94856.23;;;13.66;70.51
76990;BME280;65924;47.250;11.332;2023-05-20T01:36:44;94855.94;;;13.68;70.48
76990;BME280;65924;47.250;11.332;2023-05-20T01:37:24;94858.36;;;13.70;70.99
76990;BME280;65924;47.250;11.332;2023-05-20T01:38:05;94858.70;;;13.70;71.15
76990;BME280;65924;47.250;11.332;2023-05-20T01:38:44;94861.02;;;13.71;71.79
76990;BME280;65924;47.250;11.332;2023-05-20T01:39:24;94861.23;;;13.71;70.30
76990;BME280;65924;47.250;11.332;2023-05-20T01:40:05;94860.57;;;13.68;70.26
76990;BME280;65924;47.250;11.332;2023-05-20T01:40:45;94861.59;;;13.66;70.48
76990;BME280;65924;47.250;11.332;2023-05-20T01:41:26;94860.23;;;13.63;70.36
76990;BME280;65924;47.250;11.332;2023-05-20T01:42:07;94860.83;;;13.62;70.32
76990;BME280;65924;47.250;11.332;2023-05-20T01:42:47;94860.63;;;13.61;69.50
76990;BME280;65924;47.250;11.332;2023-05-20T01:43:30;94863.38;;;13.58;70.37
76990;BME280;65924;47.250;11.332;2023-05-20T01:44:09;94864.98;;;13.57;70.97
76990;BME280;65924;47.250;11.332;2023-05-20T01:44:48;94860.58;;;13.54;70.12
76990;BME280;65924;47.250;11.332;2023-05-20T01:45:27;94865.83;;;13.55;71.77
76990;BME280;65924;47.250;11.332;2023-05-20T01:46:08;94867.19;;;13.55;71.01
76990;BME280;65924;47.250;11.332;2023-05-20T01:46:48;94868.17;;;13.55;71.35
76990;BME280;65924;47.250;11.332;2023-05-20T01:47:27;94870.14;;;13.57;71.48
76990;BME280;65924;47.250;11.332;2023-05-20T01:48:09;94868.87;;;13.58;71.48
76990;BME280;65924;47.250;11.332;2023-05-20T01:48:48;94865.08;;;13.56;71.30
76990;BME280;65924;47.250;11.332;2023-05-20T01:49:27;94872.77;;;13.58;71.04
76990;BME280;65924;47.250;11.332;2023-05-20T01:50:06;94870.06;;;13.55;70.26
76990;BME280;65924;47.250;11.332;2023-05-20T01:50:46;94873.42;;;13.54;70.16
76990;BME280;65924;47.250;11.332;2023-05-20T01:51:25;94874.98;;;13.51;70.00
76990;BME280;65924;47.250;11.332;2023-05-20T01:52:04;94876.23;;;13.50;70.59
76990;BME280;65924;47.250;11.332;2023-05-20T01:52:43;94879.77;;;13.51;70.80
76990;BME280;65924;47.250;11.332;2023-05-20T01:53:21;94876.67;;;13.51;70.84
76990;BME280;65924;47.250;11.332;2023-05-20T01:54:00;94876.61;;;13.52;70.59
76990;BME280;65924;47.250;11.332;2023-05-20T01:54:38;94873.74;;;13.52;70.33
76990;BME280;65924;47.250;11.332;2023-05-20T01:55:17;94876.55;;;13.51;70.33
76990;BME280;65924;47.250;11.332;2023-05-20T01:55:56;94873.55;;;13.50;71.06
76990;BME280;65924;47.250;11.332;2023-05-20T01:56:34;94874.83;;;13.49;70.87
76990;BME280;65924;47.250;11.332;2023-05-20T01:57:13;94875.02;;;13.48;72.01
76990;BME280;65924;47.250;11.332;2023-05-20T01:57:51;94872.44;;;13.49;71.87
76990;BME280;65924;47.250;11.332;2023-05-20T01:58:30;94871.19;;;13.49;71.94
76990;BME280;65924;47.250;11.332;2023-05-20T01:59:09;94873.52;;;13.50;72.47
76990;BME280;65924;47.250;11.332;2023-05-20T01:59:47;94870.62;;;13.50;72.25
76990;BME280;65924;47.250;11.332;2023-05-20T02:00:26;94872.73;;;13.51;72.39
76990;BME280;65924;47.250;11.332;2023-05-20T02:01:05;94874.04;;;13.52;72.46
76990;BME280;65924;47.250;11.332;2023-05-20T02:01:43;94869.91;;;13.53;72.17
76990;BME280;65924;47.250;11.332;2023-05-20T02:02:27;94870.21;;;13.53;72.11
76990;BME280;65924;47.250;11.332;2023-05-20T02:03:05;94871.04;;;13.54;72.28
76990;BME280;65924;47.250;11.332;2023-05-20T02:03:44;94868.45;;;13.54;71.84
76990;BME280;65924;47.250;11.332;2023-05-20T02:04:22;94870.31;;;13.54;70.72
76990;BME280;65924;47.250;11.332;2023-05-20T02:05:01;94866.85;;;13.55;70.92
76990;BME280;65924;47.250;11.332;2023-05-20T02:05:39;94868.08;;;13.55;71.16
76990;BME280;65924;47.250;11.332;2023-05-20T02:06:19;94863.00;;;13.54;71.66
76990;BME280;65924;47.250;11.332;2023-05-20T02:06:57;94863.61;;;13.55;72.13
76990;BME280;65924;47.250;11.332;2023-05-20T02:07:36;94863.61;;;13.55;71.27
76990;BME280;65924;47.250;11.332;2023-05-20T02:08:14;94864.08;;;13.55;71.57
76990;BME280;65924;47.250;11.332;2023-05-20T02:08:53;94863.14;;;13.56;71.89
76990;BME280;65924;47.250;11.332;2023-05-20T02:09:32;94864.30;;;13.55;70.73
76990;BME280;65924;47.250;11.332;2023-05-20T02:10:11;94864.37;;;13.51;69.99
76990;BME280;65924;47.250;11.332;2023-05-20T02:10:49;94862.09;;;13.48;69.94
76990;BME280;65924;47.250;11.332;2023-05-20T02:11:28;94862.84;;;13.44;69.72
76990;BME280;65924;47.250;11.332;2023-05-20T02:12:07;94861.30;;;13.42;69.99
76990;BME280;65924;47.250;11.332;2023-05-20T02:12:46;94863.10;;;13.41;70.29
76990;BME280;65924;47.250;11.332;2023-05-20T02:13:26;94861.88;;;13.39;69.70
76990;BME280;65924;47.250;11.332;2023-05-20T02:14:05;94861.09;;;13.36;69.50
76990;BME280;65924;47.250;11.332;2023-05-20T02:14:45;94862.33;;;13.32;69.90
76990;BME280;65924;47.250;11.332;2023-05-20T02:15:24;94865.73;;;13.30;69.77
76990;BME280;65924;47.250;11.332;2023-05-20T02:16:02;94869.02;;;13.27;69.81
76990;BME280;65924;47.250;11.332;2023-05-20T02:16:41;94864.59;;;13.25;69.92
76990;BME280;65924;47.250;11.332;2023-05-20T02:17:19;94866.98;;;13.22;69.86
76990;BME280;65924;47.250;11.332;2023-05-20T02:17:58;94867.30;;;13.20;70.61
76990;BME280;65924;47.250;11.332;2023-05-20T02:18:36;94867.02;;;13.19;71.11
76990;BME280;65924;47.250;11.332;2023-05-20T02:19:16;94868.52;;;13.20;71.24
76990;BME280;65924;47.250;11.332;2023-05-20T02:20:00;94867.95;;;13.18;70.33
76990;BME280;65924;47.250;11.332;2023-05-20T02:20:48;94864.95;;;13.18;71.24
76990;BME280;65924;47.250;11.332;2023-05-20T02:21:26;94863.96;;;13.17;71.13
76990;BME280;65924;47.250;11.332;2023-05-20T02:22:05;94860.83;;;13.18;72.06
76990;BME280;65924;47.250;11.332;2023-05-20T02:22:44;94858.61;;;13.18;71.13
76990;BME280;65924;47.250;11.332;2023-05-20T02:23:23;94857.91;;;13.18;71.50
76990;BME280;65924;47.250;11.332;2023-05-20T02:24:01;94855.13;;;13.19;71.55
76990;BME280;65924;47.250;11.332;2023-05-20T02:24:40;94856.22;;;13.20;71.18
76990;BME280;65924;47.250;11.332;2023-05-20T02:25:21;94853.61;;;13.18;71.55
76990;BME280;65924;47.250;11.332;2023-05-20T02:25:59;94855.40;;;13.20;71.68
76990;BME280;65924;47.250;11.332;2023-05-20T02:26:38;94855.59;;;13.19;71.97
76990;BME280;65924;47.250;11.332;2023-05-20T02:27:16;94852.08;;;13.19;71.99
76990;BME280;65924;47.250;11.332;2023-05-20T02:27:55;94849.63;;;13.19;71.60
76990;BME280;65924;47.250;11.332;2023-05-20T02:28:33;94848.38;;;13.20;71.82
76990;BME280;65924;47.250;11.332;2023-05-20T02:29:12;94849.52;;;13.21;71.56
76990;BME280;65924;47.250;11.332;2023-05-20T02:29:50;94846.04;;;13.22;71.51
76990;BME280;65924;47.250;11.332;2023-05-20T02:30:30;94849.57;;;13.22;72.16
76990;BME280;65924;47.250;11.332;2023-05-20T02:31:09;94848.59;;;13.22;71.31
76990;BME280;65924;47.250;11.332;2023-05-20T02:31:47;94847.54;;;13.20;71.46
76990;BME280;65924;47.250;11.332;2023-05-20T02:32:26;94847.20;;;13.17;70.90
76990;BME280;65924;47.250;11.332;2023-05-20T02:33:06;94850.77;;;13.15;71.05
76990;BME280;65924;47.250;11.332;2023-05-20T02:33:46;94854.56;;;13.15;70.94
76990;BME280;65924;47.250;11.332;2023-05-20T02:34:24;94851.29;;;13.15;70.87
76990;BME280;65924;47.250;11.332;2023-05-20T02:35:03;94848.16;;;13.16;71.07
76990;BME280;65924;47.250;11.332;2023-05-20T02:35:46;94848.06;;;13.17;71.01
76990;BME280;65924;47.250;11.332;2023-05-20T02:36:25;94848.27;;;13.19;71.04
76990;BME280;65924;47.250;11.332;2023-05-20T02:37:05;94849.29;;;13.19;70.89
76990;BME280;65924;47.250;11.332;2023-05-20T02:37:44;94848.34;;;13.21;70.95
76990;BME280;65924;47.250;11.332;2023-05-20T02:38:23;94848.08;;;13.22;71.76
76990;BME280;65924;47.250;11.332;2023-05-20T02:39:01;94849.52;;;13.23;72.08
76990;BME280;65924;47.250;11.332;2023-05-20T02:39:42;94848.98;;;13.24;72.26
76990;BME280;65924;47.250;11.332;2023-05-20T02:40:25;94850.98;;;13.24;72.33
76990;BME280;65924;47.250;11.332;2023-05-20T02:41:05;94846.97;;;13.25;73.21
76990;BME280;65924;47.250;11.332;2023-05-20T02:41:44;94850.36;;;13.25;72.66
76990;BME280;65924;47.250;11.332;2023-05-20T02:42:22;94848.65;;;13.26;72.37
76990;BME280;65924;47.250;11.332;2023-05-20T02:43:01;94850.23;;;13.25;71.82
76990;BME280;65924;47.250;11.332;2023-05-20T02:43:40;94843.67;;;13.24;71.37
76990;BME280;65924;47.250;11.332;2023-05-20T02:44:19;94845.77;;;13.23;71.51
76990;BME280;65924;47.250;11.332;2023-05-20T02:44:59;94842.88;;;13.23;72.21
76990;BME280;65924;47.250;11.332;2023-05-20T02:45:38;94843.14;;;13.24;72.42
76990;BME280;65924;47.250;11.332;2023-05-20T02:46:18;94842.11;;;13.24;73.10
76990;BME280;65924;47.250;11.332;2023-05-20T02:46:57;94844.35;;;13.26;72.69
76990;BME280;65924;47.250;11.332;2023-05-20T02:47:35;94846.77;;;13.28;72.62
76990;BME280;65924;47.250;11.332;2023-05-20T02:48:16;94845.87;;;13.28;72.75
76990;BME280;65924;47.250;11.332;2023-05-20T02:48:54;94844.98;;;13.29;72.13
76990;BME280;65924;47.250;11.332;2023-05-20T02:49:33;94844.69;;;13.30;72.56
76990;BME280;65924;47.250;11.332;2023-05-20T02:50:12;94841.73;;;13.31;72.51
76990;BME280;65924;47.250;11.332;2023-05-20T02:50:51;94836.89;;;13.32;72.59
76990;BME280;65924;47.250;11.332;2023-05-20T02:51:30;94838.32;;;13.35;73.02
76990;BME280;65924;47.250;11.332;2023-05-20T02:52:10;94839.42;;;13.36;72.96
76990;BME280;65924;47.250;11.332;2023-05-20T02:52:49;94838.48;;;13.37;73.30
76990;BME280;65924;47.250;11.332;2023-05-20T02:53:28;94837.36;;;13.38;73.34
76990;BME280;65924;47.250;11.332;2023-05-20T02:54:06;94838.80;;;13.39;73.47
76990;BME280;65924;47.250;11.332;2023-05-20T02:54:45;94834.50;;;13.40;72.89
76990;BME280;65924;47.250;11.332;2023-05-20T02:55:24;94835.28;;;13.38;72.75
76990;BME280;65924;47.250;11.332;2023-05-20T02:56:03;94839.09;;;13.40;72.80
76990;BME280;65924;47.250;11.332;2023-05-20T02:56:41;94837.36;;;13.40;72.82
76990;BME280;65924;47.250;11.332;2023-05-20T02:57:20;94837.14;;;13.41;73.26
76990;BME280;65924;47.250;11.332;2023-05-20T02:57:58;94837.93;;;13.42;73.49
76990;BME280;65924;47.250;11.332;2023-05-20T02:58:38;94838.60;;;13.42;72.02
76990;BME280;65924;47.250;11.332;2023-05-20T02:59:17;94837.66;;;13.41;72.41
76990;BME280;65924;47.250;11.332;2023-05-20T02:59:55;94837.05;;;13.40;71.99
76990;BME280;65924;47.250;11.332;2023-05-20T03:00:34;94836.74;;;13.40;72.55
76990;BME280;65924;47.250;11.332;2023-05-20T03:01:18;94837.20;;;13.40;72.77
76990;BME280;65924;47.250;11.332;2023-05-20T03:01:56;94837.02;;;13.40;72.49
76990;BME280;65924;47.250;11.332;2023-05-20T03:02:35;94839.56;;;13.41;72.33
76990;BME280;65924;47.250;11.332;2023-05-20T03:03:14;94841.19;;;13.42;72.45
76990;BME280;65924;47.250;11.332;2023-05-20T03:03:52;94841.82;;;13.43;72.66
76990;BME280;65924;47.250;11.332;2023-05-20T03:04:31;94840.74;;;13.43;72.35
76990;BME280;65924;47.250;11.332;2023-05-20T03:05:10;94839.67;;;13.44;72.29
76990;BME280;65924;47.250;11.332;2023-05-20T03:05:49;94837.05;;;13.45;73.24
76990;BME280;65924;47.250;11.332;2023-05-20T03:06:29;94839.33;;;13.46;72.77
76990;BME280;65924;47.250;11.332;2023-05-20T03:07:09;94837.63;;;13.46;71.98
76990;BME280;65924;47.250;11.332;2023-05-20T03:07:47;94836.44;;;13.46;71.27
76990;BME280;65924;47.250;11.332;2023-05-20T03:08:26;94836.69;;;13.45;71.69
76990;BME280;65924;47.250;11.332;2023-05-20T03:09:04;94837.48;;;13.46;72.01
76990;BME280;65924;47.250;11.332;2023-05-20T03:09:43;94839.30;;;13.46;72.01
76990;BME280;65924;47.250;11.332;2023-05-20T03:10:21;94837.94;;;13.46;71.89
76990;BME280;65924;47.250;11.332;2023-05-20T03:11:00;94840.87;;;13.46;71.56
76990;BME280;65924;47.250;11.332;2023-05-20T03:11:39;94840.21;;;13.46;71.42
76990;BME280;65924;47.250;11.332;2023-05-20T03:12:17;94842.75;;;13.46;71.30
76990;BME280;65924;47.250;11.332;2023-05-20T03:12:56;94840.73;;;13.45;71.65
76990;BME280;65924;47.250;11.332;2023-05-20T03:13:34;94842.33;;;13.45;72.20
76990;BME280;65924;47.250;11.332;2023-05-20T03:14:13;94843.65;;;13.45;72.39
76990;BME280;65924;47.250;11.332;2023-05-20T03:14:52;94842.64;;;13.45;72.40
76990;BME280;65924;47.250;11.332;2023-05-20T03:15:33;94841.11;;;13.45;72.30
76990;BME280;65924;47.250;11.332;2023-05-20T03:16:13;94844.67;;;13.45;72.44
76990;BME280;65924;47.250;11.332;2023-05-20T03:16:52;94844.56;;;13.44;72.45
76990;BME280;65924;47.250;11.332;2023-05-20T03:17:33;94842.15;;;13.45;72.74
76990;BME280;65924;47.250;11.332;2023-05-20T03:18:11;94841.80;;;13.43;71.42
76990;BME280;65924;47.250;11.332;2023-05-20T03:18:51;94840.25;;;13.41;71.07
76990;BME280;65924;47.250;11.332;2023-05-20T03:19:31;94840.27;;;13.38;71.26
76990;BME280;65924;47.250;11.332;2023-05-20T03:20:10;94839.83;;;13.37;71.44
76990;BME280;65924;47.250;11.332;2023-05-20T03:20:49;94839.58;;;13.36;72.29
76990;BME280;65924;47.250;11.332;2023-05-20T03:21:28;94840.39;;;13.37;72.54
76990;BME280;65924;47.250;11.332;2023-05-20T03:22:07;94840.34;;;13.37;72.52
76990;BME280;65924;47.250;11.332;2023-05-20T03:22:45;94834.84;;;13.35;72.13
76990;BME280;65924;47.250;11.332;2023-05-20T03:23:25;94840.27;;;13.38;71.64
76990;BME280;65924;47.250;11.332;2023-05-20T03:24:04;94840.14;;;13.38;71.84
76990;BME280;65924;47.250;11.332;2023-05-20T03:24:43;94832.66;;;13.37;71.45
76990;BME280;65924;47.250;11.332;2023-05-20T03:25:24;94833.27;;;13.36;72.52
76990;BME280;65924;47.250;11.332;2023-05-20T03:26:03;94836.19;;;13.36;73.10
76990;BME280;65924;47.250;11.332;2023-05-20T03:26:44;94832.23;;;13.36;72.99